createdAt,value
2016-08-31T00:00:05.113Z,51.30
2016-08-31T00:00:26.851Z,51.32
2016-08-31T00:00:53.389Z,51.60
2016-08-31T00:01:41.637Z,51.96
2016-08-31T00:02:13.754Z,52.81
2016-08-31T00:02:40.323Z,52.66
2016-08-31T00:03:02.096Z,52.56
2016-08-31T00:03:23.890Z,52.78
2016-08-31T00:03:45.728Z,52.64
2016-08-31T00:04:07.523Z,52.54
2016-08-31T00:04:30.348Z,52.22
2016-08-31T00:05:19.648Z,52.14
2016-08-31T00:05:50.918Z,52.20
2016-08-31T00:06:12.650Z,52.47
2016-08-31T00:06:34.431Z,51.94
2016-08-31T00:07:01.043Z,51.56
2016-08-31T00:07:22.998Z,51.38
2016-08-31T00:07:49.514Z,51.58
2016-08-31T00:08:20.962Z,51.62
2016-08-31T00:08:42.796Z,51.85
2016-08-31T00:09:04.551Z,51.95
2016-08-31T00:09:26.377Z,51.49
2016-08-31T00:09:48.137Z,51.47
2016-08-31T00:10:09.891Z,51.06
2016-08-31T00:10:32.118Z,50.72
2016-08-31T00:10:53.990Z,50.24
2016-08-31T00:11:19.689Z,51.19
2016-08-31T00:11:41.420Z,51.15
2016-08-31T00:12:03.176Z,50.88
2016-08-31T00:12:24.924Z,50.25
2016-08-31T00:12:46.774Z,50.13
2016-08-31T00:13:08.514Z,49.85
2016-08-31T00:13:32.310Z,49.65
2016-08-31T00:13:54.057Z,50.22
2016-08-31T00:14:15.797Z,50.25
2016-08-31T00:14:37.529Z,50.16
2016-08-31T00:15:04.042Z,50.86
2016-08-31T00:15:25.775Z,51.03
2016-08-31T00:15:47.510Z,51.22
2016-08-31T00:16:18.777Z,50.84
2016-08-31T00:16:40.519Z,50.98
2016-08-31T00:17:02.256Z,50.85
2016-08-31T00:17:24.153Z,50.96
2016-08-31T00:17:45.996Z,50.97
2016-08-31T00:18:07.750Z,50.24
2016-08-31T00:18:29.513Z,50.01
2016-08-31T00:18:51.254Z,49.75
2016-08-31T00:19:13.187Z,49.70
2016-08-31T00:20:13.527Z,49.27
2016-08-31T00:20:42.777Z,49.44
2016-08-31T00:21:04.505Z,49.55
2016-08-31T00:21:33.833Z,49.18
2016-08-31T00:21:55.699Z,49.56
2016-08-31T00:22:17.657Z,49.70
2016-08-31T00:22:39.628Z,49.35
2016-08-31T00:23:01.442Z,49.40
2016-08-31T00:23:23.226Z,49.06
2016-08-31T00:23:44.979Z,48.83
2016-08-31T00:24:33.283Z,49.23
2016-08-31T00:24:55.117Z,49.09
2016-08-31T00:25:16.947Z,48.82
2016-08-31T00:25:38.794Z,48.94
2016-08-31T00:26:00.591Z,49.29
2016-08-31T00:26:22.326Z,49.32
2016-08-31T00:27:10.739Z,49.42
2016-08-31T00:27:32.470Z,49.30
2016-08-31T00:27:54.287Z,49.31
2016-08-31T00:28:16.125Z,49.39
2016-08-31T00:28:39.882Z,49.81
2016-08-31T00:29:01.623Z,50.13
2016-08-31T00:29:28.160Z,49.92
2016-08-31T00:29:49.922Z,49.48
2016-08-31T00:30:11.740Z,49.17
2016-08-31T00:30:33.472Z,49.34
2016-08-31T00:30:59.967Z,49.90
2016-08-31T00:31:21.740Z,49.94
2016-08-31T00:31:43.497Z,49.69
2016-08-31T00:32:05.232Z,49.43
2016-08-31T00:32:27.062Z,49.53
2016-08-31T00:32:49.014Z,49.32
2016-08-31T00:33:15.656Z,49.29
2016-08-31T00:33:42.154Z,49.00
2016-08-31T00:34:08.656Z,49.07
2016-08-31T00:34:32.969Z,49.27
2016-08-31T00:34:54.736Z,49.07
2016-08-31T00:35:16.518Z,49.81
2016-08-31T00:35:38.268Z,49.63
2016-08-31T00:36:04.918Z,49.62
2016-08-31T00:36:26.675Z,49.61
2016-08-31T00:36:48.486Z,50.06
2016-08-31T00:37:10.252Z,50.10
2016-08-31T00:37:31.996Z,51.10
2016-08-31T00:37:53.727Z,51.40
2016-08-31T00:38:15.469Z,51.52
2016-08-31T00:38:37.193Z,51.79
2016-08-31T00:39:03.702Z,51.05
2016-08-31T00:39:25.462Z,50.99
2016-08-31T00:39:47.453Z,50.71
2016-08-31T00:40:12.121Z,50.14
2016-08-31T00:40:33.980Z,49.85
2016-08-31T00:41:00.489Z,49.96
2016-08-31T00:41:22.250Z,50.97
2016-08-31T00:41:44.003Z,52.05
2016-08-31T00:42:11.500Z,53.27
2016-08-31T00:42:33.241Z,53.88
2016-08-31T00:42:56.016Z,54.09
2016-08-31T00:43:17.833Z,54.13
2016-08-31T00:43:39.798Z,53.98
2016-08-31T00:44:06.322Z,53.12
2016-08-31T00:44:28.176Z,52.94
2016-08-31T00:44:49.945Z,52.35
2016-08-31T00:45:12.089Z,52.06
2016-08-31T00:45:33.839Z,51.83
2016-08-31T00:45:55.570Z,51.75
2016-08-31T00:46:17.568Z,51.81
2016-08-31T00:46:43.971Z,52.12
2016-08-31T00:47:06.793Z,52.99
2016-08-31T00:47:28.678Z,54.48
2016-08-31T00:47:55.274Z,55.08
2016-08-31T00:48:17.096Z,55.55
2016-08-31T00:48:38.930Z,55.99
2016-08-31T00:49:00.672Z,56.21
2016-08-31T00:49:22.518Z,56.35
2016-08-31T00:49:47.123Z,56.00
2016-08-31T00:50:09.165Z,56.39
2016-08-31T00:50:31.120Z,55.98
2016-08-31T00:50:52.873Z,55.16
2016-08-31T00:51:15.609Z,54.86
2016-08-31T00:51:37.376Z,54.54
2016-08-31T00:52:30.380Z,53.96
2016-08-31T00:52:54.751Z,54.49
2016-08-31T00:53:16.479Z,54.29
2016-08-31T00:53:43.011Z,54.06
2016-08-31T00:54:04.773Z,53.60
2016-08-31T00:54:26.611Z,54.39
2016-08-31T00:54:48.521Z,54.72
2016-08-31T00:55:10.268Z,54.63
2016-08-31T00:55:32.572Z,54.38
2016-08-31T00:55:54.308Z,53.93
2016-08-31T00:56:20.822Z,54.25
2016-08-31T00:56:42.563Z,54.66
2016-08-31T00:57:04.345Z,54.81
2016-08-31T00:57:30.845Z,54.75
2016-08-31T00:57:57.347Z,54.09
2016-08-31T00:58:19.126Z,53.96
2016-08-31T00:59:08.404Z,53.89
2016-08-31T00:59:58.845Z,53.75
2016-08-31T01:00:21.648Z,53.46
2016-08-31T01:00:43.514Z,53.28
2016-08-31T01:01:34.624Z,54.74
2016-08-31T01:01:56.355Z,54.54
2016-08-31T01:02:22.867Z,54.48
2016-08-31T01:02:44.631Z,54.43
2016-08-31T01:03:06.373Z,54.11
2016-08-31T01:03:28.140Z,54.40
2016-08-31T01:03:54.646Z,53.69
2016-08-31T01:04:16.393Z,53.43
2016-08-31T01:04:38.121Z,53.11
2016-08-31T01:04:59.970Z,52.95
2016-08-31T01:05:26.570Z,54.12
2016-08-31T01:05:49.329Z,54.59
2016-08-31T01:06:11.203Z,55.19
2016-08-31T01:06:32.931Z,55.60
2016-08-31T01:06:54.672Z,55.04
2016-08-31T01:07:21.193Z,55.43
2016-08-31T01:07:42.925Z,55.94
2016-08-31T01:08:04.682Z,56.19
2016-08-31T01:08:26.605Z,56.21
2016-08-31T01:08:48.467Z,55.39
2016-08-31T01:09:10.233Z,55.03
2016-08-31T01:09:32.153Z,55.09
2016-08-31T01:09:58.867Z,55.75
2016-08-31T01:10:20.614Z,56.27
2016-08-31T01:10:42.397Z,57.09
2016-08-31T01:11:08.921Z,57.48
2016-08-31T01:11:30.685Z,57.44
2016-08-31T01:11:52.486Z,57.02
2016-08-31T01:12:19.037Z,56.21
2016-08-31T01:12:40.873Z,55.85
2016-08-31T01:13:02.767Z,54.96
2016-08-31T01:13:24.595Z,54.52
2016-08-31T01:13:46.438Z,53.82
2016-08-31T01:14:09.321Z,53.43
2016-08-31T01:15:06.915Z,52.98
2016-08-31T01:15:28.652Z,52.66
2016-08-31T01:15:51.485Z,52.64
2016-08-31T01:16:13.343Z,52.80
2016-08-31T01:16:35.145Z,52.88
2016-08-31T01:16:56.919Z,53.66
2016-08-31T01:17:28.189Z,53.64
2016-08-31T01:17:49.916Z,53.42
2016-08-31T01:18:11.715Z,53.97
2016-08-31T01:18:33.520Z,54.52
2016-08-31T01:18:55.264Z,54.81
2016-08-31T01:19:17.154Z,54.93
2016-08-31T01:19:43.667Z,55.17
2016-08-31T01:20:05.499Z,55.68
2016-08-31T01:20:27.321Z,55.95
2016-08-31T01:20:49.122Z,56.55
2016-08-31T01:21:10.876Z,56.69
2016-08-31T01:21:37.389Z,57.20
2016-08-31T01:22:03.910Z,56.96
2016-08-31T01:22:25.698Z,56.05
2016-08-31T01:22:47.501Z,55.23
2016-08-31T01:23:09.285Z,54.63
2016-08-31T01:23:31.025Z,54.92
2016-08-31T01:24:24.132Z,56.63
2016-08-31T01:24:45.872Z,57.19
2016-08-31T01:25:07.609Z,57.21
2016-08-31T01:25:29.379Z,56.65
2016-08-31T01:25:51.251Z,55.99
2016-08-31T01:26:17.808Z,56.24
2016-08-31T01:27:12.077Z,56.09
2016-08-31T01:27:34.278Z,56.13
2016-08-31T01:28:28.316Z,55.55
2016-08-31T01:28:58.338Z,55.96
2016-08-31T01:30:05.642Z,56.26
2016-08-31T01:30:58.642Z,54.62
2016-08-31T01:31:20.439Z,54.16
2016-08-31T01:31:42.294Z,53.83
2016-08-31T01:32:05.226Z,53.61
2016-08-31T01:32:27.052Z,53.51
2016-08-31T01:32:48.886Z,53.34
2016-08-31T01:33:10.633Z,54.21
2016-08-31T01:33:32.416Z,54.71
2016-08-31T01:33:58.946Z,54.82
2016-08-31T01:34:20.710Z,55.04
2016-08-31T01:34:47.264Z,55.86
2016-08-31T01:35:13.770Z,56.17
2016-08-31T01:35:35.660Z,56.24
2016-08-31T01:35:58.658Z,55.38
2016-08-31T01:36:20.732Z,55.90
2016-08-31T01:36:42.646Z,55.71
2016-08-31T01:37:04.410Z,55.02
2016-08-31T01:37:26.159Z,54.63
2016-08-31T01:37:47.907Z,54.52
2016-08-31T01:38:09.817Z,54.31
2016-08-31T01:38:31.561Z,54.49
2016-08-31T01:38:53.289Z,55.29
2016-08-31T01:39:15.027Z,55.96
2016-08-31T01:39:36.765Z,56.32
2016-08-31T01:39:58.639Z,56.49
2016-08-31T01:40:20.473Z,56.43
2016-08-31T01:40:42.310Z,55.71
2016-08-31T01:41:05.060Z,55.70
2016-08-31T01:41:26.819Z,55.31
2016-08-31T01:41:48.637Z,54.92
2016-08-31T01:42:11.363Z,55.45
2016-08-31T01:43:34.000Z,55.91
2016-08-31T01:44:22.257Z,55.08
2016-08-31T01:44:43.996Z,55.06
2016-08-31T01:45:06.728Z,54.32
2016-08-31T01:45:28.473Z,53.49
2016-08-31T01:45:50.201Z,52.80
2016-08-31T01:46:12.934Z,52.86
2016-08-31T01:46:34.676Z,52.99
2016-08-31T01:46:57.407Z,52.97
2016-08-31T01:47:23.926Z,53.13
2016-08-31T01:47:51.670Z,54.02
2016-08-31T01:48:19.552Z,55.23
2016-08-31T01:48:41.273Z,55.98
2016-08-31T01:49:03.146Z,56.42
2016-08-31T01:49:24.944Z,56.41
2016-08-31T01:49:46.694Z,55.93
2016-08-31T01:50:08.508Z,55.94
2016-08-31T01:50:35.994Z,56.13
2016-08-31T01:50:57.735Z,55.75
2016-08-31T01:51:19.478Z,55.55
2016-08-31T01:52:08.717Z,54.44
2016-08-31T01:52:30.537Z,54.04
2016-08-31T01:52:52.349Z,53.68
2016-08-31T01:53:14.240Z,53.81
2016-08-31T01:53:35.981Z,53.97
2016-08-31T01:54:00.471Z,54.31
2016-08-31T01:54:22.324Z,55.12
2016-08-31T01:54:44.138Z,55.56
2016-08-31T01:55:05.890Z,55.06
2016-08-31T01:55:33.405Z,54.69
2016-08-31T01:56:00.915Z,54.36
2016-08-31T01:56:22.649Z,54.11
2016-08-31T01:56:49.155Z,53.97
2016-08-31T01:57:15.792Z,54.53
2016-08-31T01:57:42.349Z,54.29
2016-08-31T01:58:04.173Z,54.50
2016-08-31T01:58:26.998Z,54.39
2016-08-31T01:58:48.774Z,54.22
2016-08-31T01:59:10.711Z,53.77
2016-08-31T01:59:32.445Z,53.59
2016-08-31T01:59:54.236Z,53.98
2016-08-31T02:00:16.033Z,54.83
2016-08-31T02:00:37.784Z,55.48
2016-08-31T02:00:59.514Z,55.80
2016-08-31T02:01:47.846Z,55.85
2016-08-31T02:02:09.626Z,55.86
2016-08-31T02:02:38.124Z,55.54
2016-08-31T02:03:00.860Z,55.40
2016-08-31T02:03:22.592Z,55.12
2016-08-31T02:03:47.044Z,54.53
2016-08-31T02:04:08.768Z,54.78
2016-08-31T02:04:30.507Z,54.70
2016-08-31T02:04:52.262Z,54.43
2016-08-31T02:05:14.052Z,53.80
2016-08-31T02:05:35.811Z,53.51
2016-08-31T02:05:57.632Z,53.95
2016-08-31T02:06:19.369Z,53.99
2016-08-31T02:06:41.114Z,54.17
2016-08-31T02:07:07.623Z,53.74
2016-08-31T02:07:29.408Z,53.61
2016-08-31T02:07:56.079Z,53.21
2016-08-31T02:08:17.827Z,53.11
2016-08-31T02:08:39.565Z,52.94
2016-08-31T02:09:01.390Z,52.75
2016-08-31T02:09:23.139Z,52.74
2016-08-31T02:09:44.916Z,52.79
2016-08-31T02:10:06.675Z,52.88
2016-08-31T02:10:28.422Z,53.12
2016-08-31T02:10:54.937Z,53.36
2016-08-31T02:11:16.685Z,53.48
2016-08-31T02:11:41.139Z,54.72
2016-08-31T02:12:02.944Z,54.59
2016-08-31T02:12:24.685Z,54.29
2016-08-31T02:12:46.422Z,53.99
2016-08-31T02:13:08.175Z,54.03
2016-08-31T02:13:29.967Z,54.10
2016-08-31T02:13:56.474Z,54.28
2016-08-31T02:14:18.242Z,54.29
2016-08-31T02:14:40.055Z,54.40
2016-08-31T02:15:01.783Z,54.44
2016-08-31T02:15:23.586Z,54.96
2016-08-31T02:15:45.385Z,54.79
2016-08-31T02:16:11.926Z,54.67
2016-08-31T02:16:33.738Z,54.76
2016-08-31T02:16:55.453Z,54.89
2016-08-31T02:17:17.204Z,55.12
2016-08-31T02:17:38.934Z,54.84
2016-08-31T02:18:00.665Z,54.83
2016-08-31T02:18:22.396Z,55.13
2016-08-31T02:18:51.521Z,54.92
2016-08-31T02:19:13.270Z,55.10
2016-08-31T02:19:37.667Z,54.78
2016-08-31T02:19:59.401Z,55.04
2016-08-31T02:20:21.692Z,55.25
2016-08-31T02:20:43.452Z,55.21
2016-08-31T02:21:05.210Z,54.99
2016-08-31T02:21:58.220Z,54.94
2016-08-31T02:22:19.967Z,54.78
2016-08-31T02:22:41.709Z,54.59
2016-08-31T02:23:06.231Z,54.46
2016-08-31T02:23:28.093Z,54.41
2016-08-31T02:23:54.598Z,54.60
2016-08-31T02:24:17.433Z,54.34
2016-08-31T02:24:39.186Z,54.15
2016-08-31T02:25:00.983Z,54.52
2016-08-31T02:25:22.726Z,54.44
2016-08-31T02:25:44.714Z,54.23
2016-08-31T02:26:11.229Z,54.06
2016-08-31T02:26:32.973Z,54.31
2016-08-31T02:26:54.848Z,54.38
2016-08-31T02:27:16.579Z,54.38
2016-08-31T02:27:45.812Z,54.82
2016-08-31T02:28:07.561Z,54.75
2016-08-31T02:28:29.305Z,55.45
2016-08-31T02:28:55.832Z,55.21
2016-08-31T02:29:22.361Z,55.05
2016-08-31T02:30:19.485Z,54.98
2016-08-31T02:30:41.222Z,54.81
2016-08-31T02:31:07.735Z,54.65
2016-08-31T02:31:29.475Z,54.95
2016-08-31T02:31:53.257Z,54.86
2016-08-31T02:32:15.024Z,54.68
2016-08-31T02:32:36.921Z,54.73
2016-08-31T02:33:03.472Z,55.07
2016-08-31T02:33:29.974Z,56.27
2016-08-31T02:33:51.801Z,57.33
2016-08-31T02:34:14.640Z,56.62
2016-08-31T02:34:36.377Z,56.33
2016-08-31T02:34:59.159Z,55.85
2016-08-31T02:35:21.910Z,55.25
2016-08-31T02:35:43.712Z,54.84
2016-08-31T02:36:06.566Z,54.94
2016-08-31T02:36:28.323Z,55.14
2016-08-31T02:36:54.844Z,55.87
2016-08-31T02:37:16.617Z,55.68
2016-08-31T02:37:38.416Z,55.04
2016-08-31T02:38:00.241Z,55.21
2016-08-31T02:38:31.509Z,56.17
2016-08-31T02:39:19.770Z,57.42
2016-08-31T02:39:41.504Z,57.21
2016-08-31T02:40:03.238Z,56.69
2016-08-31T02:40:24.979Z,56.36
2016-08-31T02:40:46.726Z,55.71
2016-08-31T02:41:08.447Z,55.05
2016-08-31T02:41:37.801Z,54.64
2016-08-31T02:42:31.024Z,54.49
2016-08-31T02:42:57.548Z,54.41
2016-08-31T02:43:20.278Z,54.36
2016-08-31T02:43:43.023Z,54.46
2016-08-31T02:44:04.758Z,54.24
2016-08-31T02:44:26.515Z,54.09
2016-08-31T02:44:49.260Z,53.81
2016-08-31T02:45:15.844Z,53.66
2016-08-31T02:45:37.875Z,53.85
2016-08-31T02:46:00.627Z,53.93
2016-08-31T02:46:22.380Z,53.80
2016-08-31T02:46:45.123Z,54.13
2016-08-31T02:47:06.844Z,54.03
2016-08-31T02:48:00.886Z,54.55
2016-08-31T02:48:22.649Z,54.30
2016-08-31T02:48:50.159Z,54.15
2016-08-31T02:49:16.711Z,54.17
2016-08-31T02:49:38.441Z,54.46
2016-08-31T02:50:00.323Z,54.26
2016-08-31T02:50:24.870Z,54.36
2016-08-31T02:50:46.617Z,54.56
2016-08-31T02:51:11.004Z,54.64
2016-08-31T02:51:32.752Z,54.85
2016-08-31T02:51:54.477Z,54.79
2016-08-31T02:52:19.024Z,54.57
2016-08-31T02:53:41.159Z,56.17
2016-08-31T02:54:12.481Z,56.43
2016-08-31T02:54:35.200Z,55.89
2016-08-31T02:54:57.932Z,55.32
2016-08-31T02:55:46.288Z,55.01
2016-08-31T02:56:08.108Z,55.07
2016-08-31T02:56:39.319Z,54.96
2016-08-31T02:57:01.021Z,54.75
2016-08-31T02:57:22.778Z,54.52
2016-08-31T02:57:44.505Z,55.37
2016-08-31T02:58:06.387Z,56.01
2016-08-31T02:58:32.877Z,56.25
2016-08-31T02:58:54.624Z,56.07
2016-08-31T02:59:21.107Z,56.12
2016-08-31T02:59:52.374Z,56.75
2016-08-31T03:00:14.112Z,57.00
2016-08-31T03:00:36.851Z,56.46
2016-08-31T03:00:58.575Z,56.74
2016-08-31T03:01:20.320Z,57.15
2016-08-31T03:01:42.067Z,57.48
2016-08-31T03:02:03.820Z,57.66
2016-08-31T03:02:25.554Z,58.07
2016-08-31T03:02:52.054Z,57.53
2016-08-31T03:03:13.805Z,57.54
2016-08-31T03:03:40.310Z,57.50
2016-08-31T03:04:02.166Z,57.69
2016-08-31T03:04:24.043Z,58.46
2016-08-31T03:04:46.003Z,58.69
2016-08-31T03:05:07.795Z,58.76
2016-08-31T03:05:56.075Z,58.63
2016-08-31T03:06:17.821Z,58.62
2016-08-31T03:06:42.377Z,58.40
2016-08-31T03:07:04.185Z,57.64
2016-08-31T03:07:26.006Z,56.75
2016-08-31T03:07:47.853Z,55.93
2016-08-31T03:08:14.355Z,55.54
2016-08-31T03:08:36.133Z,54.98
2016-08-31T03:09:00.627Z,55.14
2016-08-31T03:09:22.448Z,55.29
2016-08-31T03:10:15.443Z,55.35
2016-08-31T03:10:37.251Z,55.50
2016-08-31T03:10:59.085Z,55.43
2016-08-31T03:11:20.816Z,55.24
2016-08-31T03:11:42.568Z,54.93
2016-08-31T03:12:04.300Z,54.67
2016-08-31T03:12:30.918Z,54.80
2016-08-31T03:12:53.683Z,54.62
2016-08-31T03:13:15.513Z,54.44
2016-08-31T03:13:37.440Z,54.51
2016-08-31T03:13:59.219Z,54.56
2016-08-31T03:14:20.951Z,55.10
2016-08-31T03:14:42.706Z,55.35
2016-08-31T03:15:04.438Z,55.08
2016-08-31T03:15:26.176Z,55.14
2016-08-31T03:15:52.669Z,55.08
2016-08-31T03:16:14.408Z,54.89
2016-08-31T03:16:36.156Z,54.76
2016-08-31T03:16:58.144Z,54.60
2016-08-31T03:17:19.949Z,55.40
2016-08-31T03:17:42.707Z,56.58
2016-08-31T03:18:04.553Z,56.66
2016-08-31T03:18:27.324Z,57.23
2016-08-31T03:18:49.053Z,56.79
2016-08-31T03:19:10.791Z,56.41
2016-08-31T03:19:37.292Z,55.98
2016-08-31T03:20:31.293Z,56.37
2016-08-31T03:20:54.041Z,56.16
2016-08-31T03:21:20.551Z,55.61
2016-08-31T03:21:45.225Z,54.90
2016-08-31T03:22:06.989Z,54.87
2016-08-31T03:22:28.870Z,55.30
2016-08-31T03:22:50.753Z,55.42
2016-08-31T03:23:13.846Z,55.50
2016-08-31T03:23:36.595Z,55.06
2016-08-31T03:23:58.322Z,54.88
2016-08-31T03:24:20.130Z,54.87
2016-08-31T03:24:41.980Z,55.29
2016-08-31T03:25:03.767Z,55.58
2016-08-31T03:25:25.661Z,56.03
2016-08-31T03:25:47.465Z,56.04
2016-08-31T03:26:09.210Z,56.15
2016-08-31T03:26:31.968Z,56.23
2016-08-31T03:26:53.722Z,57.42
2016-08-31T03:27:15.462Z,58.18
2016-08-31T03:27:37.256Z,58.45
2016-08-31T03:27:58.995Z,58.29
2016-08-31T03:28:20.759Z,57.86
2016-08-31T03:28:42.511Z,57.29
2016-08-31T03:29:04.253Z,56.88
2016-08-31T03:29:26.009Z,56.34
2016-08-31T03:29:47.910Z,56.13
2016-08-31T03:30:09.724Z,57.17
2016-08-31T03:30:36.278Z,57.85
2016-08-31T03:30:58.314Z,58.48
2016-08-31T03:31:21.197Z,58.70
2016-08-31T03:31:43.039Z,58.78
2016-08-31T03:32:10.525Z,58.42
2016-08-31T03:32:37.161Z,58.37
2016-08-31T03:33:39.545Z,59.43
2016-08-31T03:34:01.287Z,59.76
2016-08-31T03:34:23.059Z,60.54
2016-08-31T03:34:44.826Z,61.10
2016-08-31T03:35:06.563Z,60.97
2016-08-31T03:35:29.327Z,61.07
2016-08-31T03:35:51.095Z,61.03
2016-08-31T03:36:13.056Z,61.05
2016-08-31T03:36:39.561Z,61.06
2016-08-31T03:37:01.306Z,60.67
2016-08-31T03:37:25.655Z,59.96
2016-08-31T03:37:47.491Z,60.02
2016-08-31T03:38:09.219Z,60.23
2016-08-31T03:38:31.120Z,60.60
2016-08-31T03:38:52.944Z,60.26
2016-08-31T03:39:14.877Z,60.58
2016-08-31T03:39:46.201Z,59.86
2016-08-31T03:40:08.006Z,59.02
2016-08-31T03:40:56.249Z,58.10
2016-08-31T03:41:18.032Z,58.83
2016-08-31T03:41:39.874Z,58.90
2016-08-31T03:42:01.616Z,59.04
2016-08-31T03:42:23.353Z,59.36
2016-08-31T03:42:45.129Z,58.77
2016-08-31T03:43:06.892Z,58.20
2016-08-31T03:43:28.623Z,58.61
2016-08-31T03:43:55.231Z,59.82
2016-08-31T03:44:16.975Z,59.66
2016-08-31T03:44:39.744Z,59.14
2016-08-31T03:45:01.504Z,59.04
2016-08-31T03:45:32.605Z,59.60
2016-08-31T03:45:54.518Z,59.27
2016-08-31T03:46:47.783Z,59.38
2016-08-31T03:47:10.672Z,59.15
2016-08-31T03:47:37.363Z,58.27
2016-08-31T03:47:59.200Z,57.56
2016-08-31T03:48:20.966Z,57.63
2016-08-31T03:48:42.707Z,58.73
2016-08-31T03:49:04.463Z,59.63
2016-08-31T03:49:35.750Z,60.12
2016-08-31T03:49:57.600Z,60.53
2016-08-31T03:50:20.508Z,60.65
2016-08-31T03:50:42.265Z,60.69
2016-08-31T03:51:35.443Z,60.62
2016-08-31T03:51:57.276Z,60.75
2016-08-31T03:52:19.158Z,60.09
2016-08-31T03:52:50.439Z,58.73
2016-08-31T03:53:12.201Z,58.43
2016-08-31T03:53:35.024Z,58.76
2016-08-31T03:53:56.915Z,57.95
2016-08-31T03:54:45.204Z,58.49
2016-08-31T03:55:06.927Z,58.96
2016-08-31T03:55:29.804Z,59.38
2016-08-31T03:55:51.615Z,58.61
2016-08-31T03:56:13.356Z,58.13
2016-08-31T03:56:35.097Z,57.85
2016-08-31T03:56:56.822Z,57.95
2016-08-31T03:57:18.557Z,58.86
2016-08-31T03:57:40.285Z,59.50
2016-08-31T03:58:06.799Z,59.89
2016-08-31T03:58:28.534Z,60.35
2016-08-31T03:58:56.028Z,60.53
2016-08-31T03:59:17.766Z,60.70
2016-08-31T03:59:39.500Z,60.72
2016-08-31T04:00:01.455Z,60.83
2016-08-31T04:00:23.773Z,61.03
2016-08-31T04:00:45.520Z,60.84
2016-08-31T04:01:07.261Z,60.50
2016-08-31T04:01:29.158Z,60.84
2016-08-31T04:01:50.928Z,60.93
2016-08-31T04:02:17.517Z,61.25
2016-08-31T04:02:39.378Z,61.33
2016-08-31T04:03:01.193Z,61.13
2016-08-31T04:03:22.982Z,60.88
2016-08-31T04:03:44.759Z,60.68
2016-08-31T04:04:06.480Z,61.36
2016-08-31T04:04:28.252Z,61.54
2016-08-31T04:04:50.074Z,61.84
2016-08-31T04:05:12.215Z,62.25
2016-08-31T04:05:38.886Z,61.97
2016-08-31T04:06:00.611Z,62.12
2016-08-31T04:06:22.556Z,61.95
2016-08-31T04:06:47.075Z,61.83
2016-08-31T04:07:08.806Z,61.60
2016-08-31T04:07:30.695Z,61.69
2016-08-31T04:07:57.373Z,61.96
2016-08-31T04:08:21.885Z,61.94
2016-08-31T04:08:44.258Z,62.02
2016-08-31T04:09:06.057Z,61.84
2016-08-31T04:09:27.821Z,61.62
2016-08-31T04:09:54.525Z,61.08
2016-08-31T04:10:16.393Z,60.75
2016-08-31T04:10:41.883Z,60.16
2016-08-31T04:11:03.828Z,59.02
2016-08-31T04:11:30.429Z,58.11
2016-08-31T04:11:52.345Z,57.46
2016-08-31T04:12:14.639Z,57.04
2016-08-31T04:12:41.251Z,56.79
2016-08-31T04:13:02.963Z,56.46
2016-08-31T04:13:24.793Z,56.27
2016-08-31T04:13:46.521Z,56.81
2016-08-31T04:14:08.239Z,57.08
2016-08-31T04:14:29.959Z,56.67
2016-08-31T04:14:51.670Z,56.25
2016-08-31T04:15:13.386Z,56.15
2016-08-31T04:15:35.117Z,56.39
2016-08-31T04:15:56.846Z,56.09
2016-08-31T04:16:18.559Z,55.75
2016-08-31T04:16:40.285Z,56.48
2016-08-31T04:17:02.010Z,57.38
2016-08-31T04:17:23.729Z,57.15
2016-08-31T04:17:45.526Z,56.92
2016-08-31T04:18:07.244Z,56.48
2016-08-31T04:18:28.967Z,56.26
2016-08-31T04:18:50.742Z,55.97
2016-08-31T04:19:12.461Z,56.10
2016-08-31T04:19:34.242Z,56.35
2016-08-31T04:19:55.967Z,56.08
2016-08-31T04:20:17.693Z,55.87
2016-08-31T04:20:39.415Z,55.89
2016-08-31T04:21:01.142Z,56.01
2016-08-31T04:21:22.908Z,56.37
2016-08-31T04:21:44.631Z,55.86
2016-08-31T04:22:06.352Z,56.62
2016-08-31T04:22:28.076Z,56.62
2016-08-31T04:22:49.805Z,56.63
2016-08-31T04:23:11.552Z,56.76
2016-08-31T04:23:33.286Z,57.08
2016-08-31T04:23:55.007Z,57.66
2016-08-31T04:24:16.736Z,57.97
2016-08-31T04:24:38.496Z,58.23
2016-08-31T04:25:00.201Z,57.63
2016-08-31T04:25:21.929Z,57.39
2016-08-31T04:25:43.657Z,57.38
2016-08-31T04:26:05.376Z,58.10
2016-08-31T04:26:27.113Z,59.00
2016-08-31T04:26:48.829Z,59.17
2016-08-31T04:27:10.553Z,58.75
2016-08-31T04:27:32.281Z,58.26
2016-08-31T04:27:53.999Z,58.22
2016-08-31T04:28:15.732Z,58.47
2016-08-31T04:28:37.574Z,57.87
2016-08-31T04:28:59.296Z,57.42
2016-08-31T04:29:21.024Z,57.07
2016-08-31T04:29:42.753Z,56.71
2016-08-31T04:30:04.470Z,56.61
2016-08-31T04:30:26.222Z,56.35
2016-08-31T04:30:47.971Z,56.87
2016-08-31T04:31:09.699Z,57.39
2016-08-31T04:31:31.414Z,57.58
2016-08-31T04:31:53.130Z,58.22
2016-08-31T04:32:14.848Z,58.32
2016-08-31T04:32:36.573Z,58.34
2016-08-31T04:32:58.313Z,58.63
2016-08-31T04:33:20.029Z,58.05
2016-08-31T04:33:41.754Z,58.09
2016-08-31T04:34:03.516Z,58.85
2016-08-31T04:34:25.247Z,59.05
2016-08-31T04:34:46.963Z,58.46
2016-08-31T04:35:08.685Z,58.25
2016-08-31T04:35:30.403Z,57.99
2016-08-31T04:35:52.125Z,58.16
2016-08-31T04:36:13.839Z,58.38
2016-08-31T04:36:35.571Z,58.26
2016-08-31T04:36:57.290Z,57.71
2016-08-31T04:37:19.021Z,57.55
2016-08-31T04:37:40.742Z,57.85
2016-08-31T04:38:02.503Z,57.71
2016-08-31T04:38:24.220Z,57.45
2016-08-31T04:38:45.939Z,57.12
2016-08-31T04:39:07.671Z,57.04
2016-08-31T04:39:29.395Z,56.97
2016-08-31T04:39:51.206Z,56.60
2016-08-31T04:40:12.903Z,56.29
2016-08-31T04:40:34.637Z,56.19
2016-08-31T04:40:56.352Z,56.08
2016-08-31T04:41:18.115Z,56.24
2016-08-31T04:41:39.868Z,56.61
2016-08-31T04:42:01.591Z,56.62
2016-08-31T04:42:23.314Z,56.29
2016-08-31T04:42:45.034Z,56.33
2016-08-31T04:43:06.745Z,56.48
2016-08-31T04:43:54.959Z,56.28
2016-08-31T04:44:16.681Z,56.43
2016-08-31T04:44:38.419Z,56.43
2016-08-31T04:45:00.186Z,56.62
2016-08-31T04:45:21.919Z,56.72
2016-08-31T04:45:43.737Z,56.39
2016-08-31T04:46:05.462Z,56.59
2016-08-31T04:46:27.181Z,56.29
2016-08-31T04:46:48.902Z,56.56
2016-08-31T04:47:10.644Z,56.68
2016-08-31T04:47:32.368Z,56.33
2016-08-31T04:47:54.089Z,56.65
2016-08-31T04:48:16.006Z,57.43
2016-08-31T04:48:37.744Z,57.74
2016-08-31T04:48:59.462Z,57.54
2016-08-31T04:49:21.181Z,56.85
2016-08-31T04:49:42.898Z,56.88
2016-08-31T04:50:04.618Z,56.90
2016-08-31T04:50:26.337Z,56.62
2016-08-31T04:50:48.054Z,56.84
2016-08-31T04:51:09.776Z,57.15
2016-08-31T04:51:31.504Z,57.15
2016-08-31T04:51:53.238Z,56.74
2016-08-31T04:52:14.967Z,57.20
2016-08-31T04:52:36.681Z,57.19
2016-08-31T04:52:58.409Z,57.78
2016-08-31T04:53:20.144Z,58.77
2016-08-31T04:53:41.859Z,58.44
2016-08-31T04:54:03.587Z,57.95
2016-08-31T04:54:25.314Z,57.75
2016-08-31T04:54:47.042Z,57.70
2016-08-31T04:55:08.784Z,57.60
2016-08-31T04:55:30.516Z,57.61
2016-08-31T04:55:52.230Z,57.38
2016-08-31T04:56:13.955Z,57.05
2016-08-31T04:56:35.683Z,57.07
2016-08-31T04:56:57.405Z,57.33
2016-08-31T04:57:19.132Z,57.63
2016-08-31T04:57:40.954Z,57.54
2016-08-31T04:58:02.643Z,57.52
2016-08-31T04:58:24.384Z,57.97
2016-08-31T04:58:46.131Z,58.09
2016-08-31T04:59:07.846Z,57.47
2016-08-31T04:59:29.568Z,57.43
2016-08-31T04:59:51.389Z,57.67
2016-08-31T05:00:13.180Z,57.53
2016-08-31T05:00:34.912Z,56.97
2016-08-31T05:00:56.646Z,56.93
2016-08-31T05:01:18.361Z,56.73
2016-08-31T05:01:40.080Z,56.92
2016-08-31T05:02:01.807Z,57.16
2016-08-31T05:02:24.515Z,57.25
2016-08-31T05:02:46.231Z,57.05
2016-08-31T05:03:07.958Z,57.21
2016-08-31T05:03:29.692Z,57.17
2016-08-31T05:03:51.408Z,57.57
2016-08-31T05:04:13.123Z,57.74
2016-08-31T05:04:34.860Z,57.41
2016-08-31T05:04:56.569Z,57.05
2016-08-31T05:05:18.304Z,56.76
2016-08-31T05:05:40.025Z,56.72
2016-08-31T05:06:01.754Z,56.79
2016-08-31T05:06:23.469Z,56.94
2016-08-31T05:06:45.209Z,56.74
2016-08-31T05:07:06.931Z,56.78
2016-08-31T05:07:28.659Z,56.57
2016-08-31T05:07:50.384Z,56.49
2016-08-31T05:08:12.102Z,56.29
2016-08-31T05:08:33.821Z,56.39
2016-08-31T05:08:55.562Z,56.78
2016-08-31T05:09:22.045Z,57.05
2016-08-31T05:09:43.901Z,57.33
2016-08-31T05:10:05.626Z,57.57
2016-08-31T05:10:27.402Z,57.49
2016-08-31T05:10:49.126Z,57.85